»·PEaware :: QXE2530 KSEA-KBLI

QXE2530 :: KSEA-KBLI

FLIGHT INFORMATION

Flight Status: Arrived
Operator:
Horizon Air
More flights by this operator :: More flights under this callsign
Pilot: Adlai G. (28854)
Aircraft: DEHAVILLAND DASH 8 400
(DH8D)
More flights by this aircraft type
Origin: KSEA Seattle-Tacoma Intl
United States
Destination: KBLI Bellingham Intl
United States
More flights between these airports :: More routes between these airports
Route: SEA7 PAE MADEE MADEE4
File this flight plan on PilotEdge
Remarks:
Altitude:
(Current/Filed)
12,000ft
Speed:
(Current/Filed)
332kts
Departed: 14-Feb-21 11:43 AM
Arrived: 14-Feb-21 12:08 PM
Distance/Time
Traveled:
81nm/0:25
Distance/Time
To Go:
Arrived

Flight Plot

Page will automatically refresh every two minutes.

Flight plan parsing failed; only flown route is shown


Map Options




Map Legend


Flown Route
Filed Route
Departure Airport
Arrival Airport
Navaid (VOR, NDB)
Fix

Horizontal Profiles

Position Reports

Time Latitude Longitude Heading Altitude Ground
Speed
14-Feb-21 11:02 47.446545 -122.304893 55 440ft 0kts
14-Feb-21 11:03 47.446545 -122.304893 55 440ft 0kts
14-Feb-21 11:04 47.446545 -122.304893 55 440ft 0kts
14-Feb-21 11:05 47.446545 -122.304893 55 440ft 0kts
14-Feb-21 11:06 47.446545 -122.304893 55 440ft 0kts
14-Feb-21 11:07 47.446545 -122.304893 55 440ft 0kts
14-Feb-21 11:08 47.446545 -122.304893 55 440ft 0kts
14-Feb-21 11:09 47.446545 -122.304893 55 440ft 0kts
14-Feb-21 11:10 47.446545 -122.304893 55 440ft 0kts
14-Feb-21 11:11 47.446545 -122.304893 55 440ft 0kts
14-Feb-21 11:12 47.446545 -122.304893 55 440ft 0kts
14-Feb-21 11:13 47.446545 -122.304893 55 440ft 0kts
14-Feb-21 11:14 47.446545 -122.304893 55 440ft 0kts
14-Feb-21 11:15 47.446545 -122.304893 55 440ft 0kts
14-Feb-21 11:16 47.446545 -122.304893 55 440ft 0kts
14-Feb-21 11:17 47.446545 -122.304893 55 440ft 0kts
14-Feb-21 11:18 47.446545 -122.304893 55 440ft 0kts
14-Feb-21 11:19 47.446545 -122.304893 55 440ft 0kts
14-Feb-21 11:20 47.446545 -122.304893 55 440ft 0kts
14-Feb-21 11:21 47.446545 -122.304893 55 440ft 0kts
14-Feb-21 11:22 47.446545 -122.304893 55 440ft 0kts
14-Feb-21 11:23 47.446545 -122.304893 55 440ft 0kts
14-Feb-21 11:24 47.446545 -122.304893 55 440ft 0kts
14-Feb-21 11:25 47.446545 -122.304893 55 440ft 0kts
14-Feb-21 11:26 47.446545 -122.304893 55 440ft 0kts
14-Feb-21 11:27 47.446545 -122.304893 55 440ft 0kts
14-Feb-21 11:28 47.446545 -122.304893 55 440ft 0kts
14-Feb-21 11:29 47.446545 -122.304893 55 440ft 0kts
14-Feb-21 11:30 47.446545 -122.304893 55 440ft 0kts
14-Feb-21 11:31 47.446545 -122.304893 55 440ft 0kts
14-Feb-21 11:32 47.446132 -122.305646 7 440ft 3kts
14-Feb-21 11:33 47.445972 -122.305656 0 440ft 0kts
14-Feb-21 11:34 47.445970 -122.305656 0 440ft 0kts
14-Feb-21 11:35 47.445969 -122.305656 0 440ft 0kts
14-Feb-21 11:36 47.445994 -122.305655 0 440ft 0kts
14-Feb-21 11:37 47.446444 -122.305643 1 440ft 5kts
14-Feb-21 11:38 47.448978 -122.306270 0 440ft 15kts
14-Feb-21 11:39 47.454857 -122.306226 359 440ft 24kts
14-Feb-21 11:40 47.461574 -122.306159 0 440ft 13kts
14-Feb-21 11:42 47.463448 -122.306771 273 440ft 2kts
14-Feb-21 11:43 47.453765 -122.307841 174 487ft 127kts
14-Feb-21 11:44 47.413992 -122.312936 181 2496ft 177kts
14-Feb-21 11:45 47.357024 -122.315531 181 4963ft 206kts
14-Feb-21 11:46 47.310314 -122.286249 90 7689ft 187kts
14-Feb-21 11:47 47.346919 -122.230094 26 9530ft 225kts
14-Feb-21 11:48 47.413232 -122.218102 351 10995ft 255kts
14-Feb-21 11:49 47.487061 -122.226730 351 11952ft 283kts
14-Feb-21 11:50 47.570397 -122.236468 351 12001ft 313kts
14-Feb-21 11:51 47.657360 -122.246834 352 12002ft 316kts
14-Feb-21 11:52 47.747046 -122.257363 352 12003ft 325kts
14-Feb-21 11:53 47.836329 -122.267835 351 12007ft 323kts
14-Feb-21 11:54 47.927891 -122.279448 349 12011ft 334kts
14-Feb-21 11:55 48.018740 -122.305962 344 12013ft 333kts
14-Feb-21 11:55 48.094502 -122.328417 345 12014ft 334kts
14-Feb-21 11:57 48.200364 -122.359766 346 12003ft 334kts
14-Feb-21 11:58 48.291440 -122.386123 347 11767ft 334kts
14-Feb-21 11:58 48.366463 -122.408078 347 10493ft 316kts
14-Feb-21 12:00 48.460246 -122.438964 336 7682ft 280kts
14-Feb-21 12:01 48.522609 -122.493931 328 5534ft 252kts
14-Feb-21 12:01 48.572313 -122.535004 347 3393ft 241kts
14-Feb-21 12:02 48.630607 -122.537279 2 2500ft 174kts
14-Feb-21 12:03 48.673762 -122.536990 1 2277ft 140kts
14-Feb-21 12:05 48.720017 -122.537229 1 1416ft 139kts
14-Feb-21 12:05 48.751847 -122.537340 1 798ft 135kts
14-Feb-21 12:06 48.789360 -122.537496 1 178ft 108kts
14-Feb-21 12:07 48.794826 -122.536653 138 177ft 2kts
14-Feb-21 12:08 48.793946 -122.535479 138 177ft 8kts
14-Feb-21 12:09 48.794596 -122.533537 21 177ft 5kts
14-Feb-21 12:10 48.794809 -122.533669 309 177ft 3kts
14-Feb-21 12:11 48.795694 -122.536074 359 177ft 8kts
14-Feb-21 12:12 48.795893 -122.536076 359 177ft 0kts

Navigation Log

Ident Type
Flight plan parsing failed, navigation log unavailable